Buoy 44845

sailwx.info

Track history (hours):
 
Tides and Currents Weather Stations Pressure Air Temp Water Temp Dewpoint Dewpoint Depression Visibility Wind Speed Wind Dir Waves Ship Positions

Drifting buoy 44845

Last reported at 2016-Jul-01 11:02 UTC. Time now 2016-Jul-01 11:48 UTC.
Position N 72°37' E 015°42'.

Date/timePositionNaut miles runAvg speedWind from/ knotsBaromVisibWave heightAir tempDewpointWater temp
2016-Jul-01 11:02N 72°37' E 015°42'0 0.1
2016-Jul-01 10:01N 72°37' E 015°42'0 0.1
2016-Jul-01 09:01N 72°37' E 015°42'0 0.1
2016-Jul-01 08:02N 72°37' E 015°42'0 0.2
2016-Jul-01 07:01N 72°37' E 015°43'0 0.2
2016-Jul-01 06:01N 72°37' E 015°44'0 0.2
2016-Jul-01 05:01N 72°37' E 015°45'0 0.2
2016-Jul-01 04:01N 72°37' E 015°45'0 0.4
2016-Jul-01 03:01N 72°36' E 015°47'0 0.4
2016-Jul-01 02:01N 72°36' E 015°48'0 0.4
2016-Jul-01 01:01N 72°37' E 015°50'0 0.5
2016-Jul-01 00:01N 72°37' E 015°51'0 0.4
2016-Jun-30 23:01N 72°37' E 015°51'0 0.5
2016-Jun-30 22:01N 72°38' E 015°52'0 0.3
2016-Jun-30 21:01N 72°38' E 015°51'0 0.2
2016-Jun-30 19:01N 72°38' E 015°50'0 0.2
2016-Jun-30 18:01N 72°38' E 015°50'0 0.4
2016-Jun-30 17:01N 72°38' E 015°51'0 0.5
2016-Jun-30 16:01N 72°38' E 015°52'1 0.6
2016-Jun-30 15:01N 72°38' E 015°54'1 0.8
2016-Jun-30 14:01N 72°38' E 015°57'1 0.8
2016-Jun-30 13:01N 72°38' E 015°59'1 0.9
2016-Jun-30 12:01N 72°39' E 016°01'1 0.8
2016-Jun-30 11:01N 72°40' E 016°03'1 0.7
2016-Jun-30 10:01N 72°40' E 016°04'0 0.5
2016-Jun-30 09:01N 72°40' E 016°05'0 0.3
2016-Jun-30 08:01N 72°41' E 016°06'1 0.6
2016-Jun-30 07:01N 72°40' E 016°08'1 0.8
2016-Jun-30 06:01N 72°40' E 016°10'1 1.0
2016-Jun-30 05:01N 72°39' E 016°13'1 0.9
2016-Jun-30 04:01N 72°39' E 016°15'2 2.1
2016-Jun-30 03:01N 72°38' E 016°21'1 0.9
2016-Jun-30 02:01N 72°38' E 016°18'0 0.4
2016-Jun-30 01:01N 72°38' E 016°19'1 0.5
2016-Jun-30 00:01N 72°37' E 016°19'1 0.6
2016-Jun-29 23:01N 72°37' E 016°19'1 0.7
2016-Jun-29 22:01N 72°36' E 016°19'1 0.8
2016-Jun-29 21:01N 72°35' E 016°18'1 0.8
2016-Jun-29 20:01N 72°35' E 016°17'1 0.9
2016-Jun-29 19:01N 72°34' E 016°16'1 1.0
2016-Jun-29 18:01N 72°33' E 016°15'1 1.0
2016-Jun-29 17:01N 72°32' E 016°14'1 0.9
2016-Jun-29 16:01N 72°31' E 016°14'1 0.8
2016-Jun-29 15:01N 72°30' E 016°14'1 0.6
2016-Jun-29 14:01N 72°29' E 016°13'1 0.5
2016-Jun-29 13:01N 72°29' E 016°13'0 0.4
2016-Jun-29 12:01N 72°29' E 016°13'0 0.4
2016-Jun-29 11:01N 72°28' E 016°11'1 0.7
2016-Jun-29 10:01N 72°28' E 016°09'1 0.9
2016-Jun-29 09:01N 72°28' E 016°06'1 1.1
2016-Jun-29 08:01N 72°28' E 016°03'1 1.1
2016-Jun-29 07:01N 72°27' E 015°59'1 1.0
2016-Jun-29 06:01N 72°27' E 015°56'1 1.0
2016-Jun-29 05:01N 72°26' E 015°53'1 0.7
2016-Jun-29 03:01N 72°25' E 015°49'0 0.4
2016-Jun-29 02:01N 72°25' E 015°48'0 0.3
2016-Jun-29 01:01N 72°25' E 015°47'0 0.5
2016-Jun-29 00:01N 72°25' E 015°45'1 0.6
2016-Jun-28 23:01N 72°25' E 015°43'1 0.7
2016-Jun-28 22:01N 72°25' E 015°41'2 0.9
2016-Jun-28 20:01N 72°25' E 015°35'1 1.0
2016-Jun-28 19:01N 72°25' E 015°32'1 0.9
2016-Jun-28 18:01N 72°25' E 015°29'2 0.9
2016-Jun-28 16:01N 72°23' E 015°26'1 0.9
2016-Jun-28 15:01N 72°22' E 015°25'4 0.4
2016-Jun-28 07:01N 72°19' E 015°30'0 0.3
2016-Jun-28 06:01N 72°19' E 015°30'0 0.4
2016-Jun-28 05:01N 72°18' E 015°30'0 0.4
2016-Jun-28 04:01N 72°18' E 015°30'0 0.3
2016-Jun-28 03:01N 72°18' E 015°31'1 0.5
2016-Jun-28 02:01N 72°17' E 015°31'1 0.5
2016-Jun-28 01:01N 72°17' E 015°32'0 0.4
2016-Jun-28 00:01N 72°17' E 015°33'0 0.4
2016-Jun-27 23:01N 72°16' E 015°34'0 0.3
2016-Jun-27 22:01N 72°16' E 015°35'0 0.2
2016-Jun-27 21:01N 72°16' E 015°35'0 0.2
2016-Jun-27 20:01N 72°16' E 015°35'0 0.2
2016-Jun-27 19:01N 72°15' E 015°35'0 0.4
2016-Jun-27 18:01N 72°15' E 015°34'0 0.4
2016-Jun-27 17:01N 72°15' E 015°34'0 0.4
2016-Jun-27 16:01N 72°14' E 015°35'0 0.4
2016-Jun-27 15:01N 72°14' E 015°36'0 0.4
2016-Jun-27 14:01N 72°14' E 015°37'0 0.4
2016-Jun-27 13:01N 72°14' E 015°38'0 0.4
2016-Jun-27 12:01N 72°14' E 015°40'1 0.6
2016-Jun-27 11:01N 72°14' E 015°42'1 0.6
2016-Jun-27 10:01N 72°14' E 015°43'1 0.7
2016-Jun-27 09:01N 72°13' E 015°46'1 0.7
2016-Jun-27 08:01N 72°14' E 015°48'1 0.8
2016-Jun-27 07:01N 72°14' E 015°50'1 0.7
2016-Jun-27 06:01N 72°14' E 015°52'0 0.5
2016-Jun-27 05:01N 72°14' E 015°53'0 0.4
2016-Jun-27 04:01N 72°15' E 015°54'0 0.4
2016-Jun-27 03:01N 72°15' E 015°56'0 0.5
2016-Jun-27 02:01N 72°15' E 015°57'0 0.4
2016-Jun-27 01:01N 72°15' E 015°58'0 0.3
2016-Jun-27 00:01N 72°16' E 015°59'0 0.2
2016-Jun-26 23:01N 72°16' E 015°59'0 0.3
2016-Jun-26 22:01N 72°16' E 016°00'0 0.3
2016-Jun-26 21:01N 72°16' E 016°01'0 0.1
2016-Jun-26 20:01N 72°16' E 016°01'1 0.3
2016-Jun-26 18:01N 72°16' E 015°59'1 0.5
2016-Jun-26 17:01N 72°15' E 015°58'1 0.5
2016-Jun-26 16:01N 72°15' E 015°58'1 0.4
2016-Jun-26 14:01N 72°14' E 015°58'0 0.2
2016-Jun-26 13:01N 72°14' E 015°58'0 0.3
2016-Jun-26 12:01N 72°14' E 015°59'1 0.5
2016-Jun-26 10:01N 72°15' E 015°59'1 0.7
2016-Jun-26 09:01N 72°16' E 015°59'1 0.7
2016-Jun-26 08:01N 72°17' E 015°57'1 0.6
2016-Jun-26 07:01N 72°17' E 015°55'1 0.5
2016-Jun-26 06:01N 72°17' E 015°53'1 0.5
2016-Jun-26 05:01N 72°17' E 015°52'1 0.5
2016-Jun-26 04:01N 72°17' E 015°50'1 0.5
2016-Jun-26 03:01N 72°18' E 015°49'1 0.4
2016-Jun-26 01:01N 72°18' E 015°48'1 0.7
2016-Jun-26 00:01N 72°19' E 015°47'1 0.7
2016-Jun-25 23:01N 72°20' E 015°46'1 0.8
2016-Jun-25 22:01N 72°20' E 015°44'1 1.0
2016-Jun-25 21:01N 72°21' E 015°42'1 1.0
2016-Jun-25 20:01N 72°21' E 015°38'1 1.1
2016-Jun-25 19:01N 72°22' E 015°35'1 1.2
2016-Jun-25 18:01N 72°22' E 015°31'1 1.2
2016-Jun-25 17:01N 72°22' E 015°27'1 0.9
2016-Jun-25 16:01N 72°22' E 015°24'1 0.6
2016-Jun-25 15:01N 72°22' E 015°22'1 0.4
2016-Jun-25 13:01N 72°22' E 015°19'0 0.3
2016-Jun-25 12:01N 72°22' E 015°18'0 0.3
2016-Jun-25 11:01N 72°22' E 015°18'1 0.6
2016-Jun-25 10:01N 72°23' E 015°16'1 0.5
2016-Jun-25 09:01N 72°23' E 015°15'0 0.5
2016-Jun-25 08:01N 72°23' E 015°14'1 0.5
2016-Jun-25 07:01N 72°23' E 015°12'1 0.5
2016-Jun-25 06:01N 72°23' E 015°10'0 0.5
2016-Jun-25 05:01N 72°23' E 015°09'0 0.5
2016-Jun-25 04:01N 72°23' E 015°08'0 0.4
2016-Jun-25 03:01N 72°23' E 015°06'0 0.3
2016-Jun-25 02:01N 72°23' E 015°06'0 0.1
2016-Jun-25 01:01N 72°22' E 015°06'0 0.2
2016-Jun-25 00:01N 72°22' E 015°05'0 0.3
2016-Jun-24 23:01N 72°23' E 015°04'1 0.5
2016-Jun-24 22:01N 72°22' E 015°02'1 0.6
2016-Jun-24 21:01N 72°22' E 015°01'0 0.4
2016-Jun-24 20:01N 72°21' E 015°00'1 0.5
2016-Jun-24 19:01N 72°21' E 014°59'1 0.5
2016-Jun-24 18:01N 72°21' E 014°59'1 0.6
2016-Jun-24 17:01N 72°20' E 014°58'1 0.7
2016-Jun-24 16:01N 72°19' E 014°58'1 0.5
2016-Jun-24 15:01N 72°19' E 014°58'0 0.4
2016-Jun-24 14:01N 72°18' E 014°58'0 0.4
2016-Jun-24 13:01N 72°18' E 014°59'1 0.3
2016-Jun-24 11:01N 72°18' E 015°01'1 0.3
2016-Jun-24 09:01N 72°18' E 015°02'0 0.2
2016-Jun-24 08:01N 72°19' E 015°02'0 0.2
2016-Jun-24 07:01N 72°19' E 015°01'1 0.4
2016-Jun-24 05:01N 72°18' E 014°59'1 0.8
2016-Jun-24 04:01N 72°17' E 014°58'1 0.9
2016-Jun-24 03:01N 72°17' E 014°57'1 0.7
2016-Jun-24 02:01N 72°16' E 014°56'1 0.8
2016-Jun-24 01:01N 72°15' E 014°56'1 0.8
2016-Jun-24 00:01N 72°14' E 014°56'1 0.7
2016-Jun-23 23:01N 72°14' E 014°57'1 0.8
2016-Jun-23 22:01N 72°13' E 014°58'1 0.6
2016-Jun-23 20:01N 72°12' E 014°60'1 0.5
2016-Jun-23 18:01N 72°11' E 015°01'0 0.5
2016-Jun-23 17:01N 72°10' E 015°01'0 0.5
2016-Jun-23 16:01N 72°10' E 015°01'1 0.6
2016-Jun-23 15:01N 72°09' E 015°01'1 0.6
2016-Jun-23 14:01N 72°08' E 015°01'1 0.6
2016-Jun-23 12:01N 72°07' E 015°01'0 0.5
2016-Jun-23 11:01N 72°07' E 015°01'0 0.3
2016-Jun-23 10:01N 72°07' E 015°01'1 0.4
2016-Jun-23 08:01N 72°06' E 014°59'1 0.5
2016-Jun-23 06:01N 72°05' E 014°57'1 0.6
2016-Jun-23 05:01N 72°05' E 014°56'1 0.6
2016-Jun-23 04:01N 72°04' E 014°55'1 0.7
2016-Jun-23 03:01N 72°03' E 014°54'1 0.7
2016-Jun-23 01:01N 72°02' E 014°51'1 0.7
2016-Jun-23 00:01N 72°02' E 014°49'1 0.9
2016-Jun-22 23:01N 72°02' E 014°47'1 1.1
2016-Jun-22 22:01N 72°01' E 014°43'3 1.4
2016-Jun-22 20:01N 71°60' E 014°35'2 1.5
2016-Jun-22 19:01N 71°59' E 014°31'1 1.4
2016-Jun-22 18:01N 71°58' E 014°27'1 1.2
2016-Jun-22 17:01N 71°58' E 014°23'1 1.5
2016-Jun-22 16:01N 71°58' E 014°19'1 1.5
2016-Jun-22 15:01N 71°57' E 014°14'2 1.0
2016-Jun-22 13:01N 71°57' E 014°08'0 0.3
2016-Jun-22 12:01N 71°57' E 014°07'1 0.5
2016-Jun-22 11:01N 71°57' E 014°06'1 0.6
2016-Jun-22 10:01N 71°58' E 014°05'1 0.7
2016-Jun-22 09:01N 71°58' E 014°04'1 0.7
2016-Jun-22 08:01N 71°59' E 014°02'0 0.4
2016-Jun-22 07:01N 71°59' E 014°02'0 0.4
2016-Jun-22 06:01N 71°60' E 014°02'0 0.4
2016-Jun-22 05:01N 71°60' E 014°01'0 0.1
2016-Jun-22 03:01N 72°00' E 014°02'0 0.2
2016-Jun-22 02:01N 72°00' E 014°03'0 0.3
2016-Jun-22 01:01N 72°00' E 014°03'0 0.3
2016-Jun-22 00:01N 72°01' E 014°04'0 0.3
2016-Jun-21 23:01N 72°01' E 014°05'1 0.5
2016-Jun-21 22:01N 72°01' E 014°06'1 0.6
2016-Jun-21 20:01N 72°02' E 014°10'1 0.8
2016-Jun-21 19:01N 72°02' E 014°12'1 0.7
2016-Jun-21 18:01N 72°02' E 014°14'1 0.8
2016-Jun-21 17:01N 72°02' E 014°17'1 0.8
2016-Jun-21 16:01N 72°01' E 014°19'1 0.7
2016-Jun-21 15:01N 72°01' E 014°20'1 0.7
2016-Jun-21 14:01N 72°00' E 014°21'1 0.8
2016-Jun-21 13:01N 71°60' E 014°22'1 1.0
2016-Jun-21 12:01N 71°59' E 014°23'  
Track history (hours):
 
Tides and Currents Weather Stations Pressure Air Temp Water Temp Dewpoint Dewpoint Depression Visibility Wind Speed Wind Dir Waves Ship Positions

Drifting buoy 44845

Last reported at 2016-Jul-01 11:02 UTC. Time now 2016-Jul-01 11:48 UTC.
Position N 72°37' E 015°42'.

Date/timePositionNaut miles runAvg speedWind from/ knotsBaromVisibWave heightAir tempDewpointWater temp
2016-Jul-01 11:02N 72°37' E 015°42'0 0.1
2016-Jul-01 10:01N 72°37' E 015°42'0 0.1
2016-Jul-01 09:01N 72°37' E 015°42'0 0.1
2016-Jul-01 08:02N 72°37' E 015°42'0 0.2
2016-Jul-01 07:01N 72°37' E 015°43'0 0.2
2016-Jul-01 06:01N 72°37' E 015°44'0 0.2
2016-Jul-01 05:01N 72°37' E 015°45'0 0.2
2016-Jul-01 04:01N 72°37' E 015°45'0 0.4
2016-Jul-01 03:01N 72°36' E 015°47'0 0.4
2016-Jul-01 02:01N 72°36' E 015°48'0 0.4
2016-Jul-01 01:01N 72°37' E 015°50'0 0.5
2016-Jul-01 00:01N 72°37' E 015°51'0 0.4
2016-Jun-30 23:01N 72°37' E 015°51'0 0.5
2016-Jun-30 22:01N 72°38' E 015°52'0 0.3
2016-Jun-30 21:01N 72°38' E 015°51'0 0.2
2016-Jun-30 19:01N 72°38' E 015°50'0 0.2
2016-Jun-30 18:01N 72°38' E 015°50'0 0.4
2016-Jun-30 17:01N 72°38' E 015°51'0 0.5
2016-Jun-30 16:01N 72°38' E 015°52'1 0.6
2016-Jun-30 15:01N 72°38' E 015°54'1 0.8
2016-Jun-30 14:01N 72°38' E 015°57'1 0.8
2016-Jun-30 13:01N 72°38' E 015°59'1 0.9
2016-Jun-30 12:01N 72°39' E 016°01'1 0.8
2016-Jun-30 11:01N 72°40' E 016°03'1 0.7
2016-Jun-30 10:01N 72°40' E 016°04'0 0.5
2016-Jun-30 09:01N 72°40' E 016°05'0 0.3
2016-Jun-30 08:01N 72°41' E 016°06'1 0.6
2016-Jun-30 07:01N 72°40' E 016°08'1 0.8
2016-Jun-30 06:01N 72°40' E 016°10'1 1.0
2016-Jun-30 05:01N 72°39' E 016°13'1 0.9
2016-Jun-30 04:01N 72°39' E 016°15'2 2.1
2016-Jun-30 03:01N 72°38' E 016°21'1 0.9
2016-Jun-30 02:01N 72°38' E 016°18'0 0.4
2016-Jun-30 01:01N 72°38' E 016°19'1 0.5
2016-Jun-30 00:01N 72°37' E 016°19'1 0.6
2016-Jun-29 23:01N 72°37' E 016°19'1 0.7
2016-Jun-29 22:01N 72°36' E 016°19'1 0.8
2016-Jun-29 21:01N 72°35' E 016°18'1 0.8
2016-Jun-29 20:01N 72°35' E 016°17'1 0.9
2016-Jun-29 19:01N 72°34' E 016°16'1 1.0
2016-Jun-29 18:01N 72°33' E 016°15'1 1.0
2016-Jun-29 17:01N 72°32' E 016°14'1 0.9
2016-Jun-29 16:01N 72°31' E 016°14'1 0.8
2016-Jun-29 15:01N 72°30' E 016°14'1 0.6
2016-Jun-29 14:01N 72°29' E 016°13'1 0.5
2016-Jun-29 13:01N 72°29' E 016°13'0 0.4
2016-Jun-29 12:01N 72°29' E 016°13'0 0.4
2016-Jun-29 11:01N 72°28' E 016°11'1 0.7
2016-Jun-29 10:01N 72°28' E 016°09'1 0.9
2016-Jun-29 09:01N 72°28' E 016°06'1 1.1
2016-Jun-29 08:01N 72°28' E 016°03'1 1.1
2016-Jun-29 07:01N 72°27' E 015°59'1 1.0
2016-Jun-29 06:01N 72°27' E 015°56'1 1.0
2016-Jun-29 05:01N 72°26' E 015°53'1 0.7
2016-Jun-29 03:01N 72°25' E 015°49'0 0.4
2016-Jun-29 02:01N 72°25' E 015°48'0 0.3
2016-Jun-29 01:01N 72°25' E 015°47'0 0.5
2016-Jun-29 00:01N 72°25' E 015°45'1 0.6
2016-Jun-28 23:01N 72°25' E 015°43'1 0.7
2016-Jun-28 22:01N 72°25' E 015°41'2 0.9
2016-Jun-28 20:01N 72°25' E 015°35'1 1.0
2016-Jun-28 19:01N 72°25' E 015°32'1 0.9
2016-Jun-28 18:01N 72°25' E 015°29'2 0.9
2016-Jun-28 16:01N 72°23' E 015°26'1 0.9
2016-Jun-28 15:01N 72°22' E 015°25'4 0.4
2016-Jun-28 07:01N 72°19' E 015°30'0 0.3
2016-Jun-28 06:01N 72°19' E 015°30'0 0.4
2016-Jun-28 05:01N 72°18' E 015°30'0 0.4
2016-Jun-28 04:01N 72°18' E 015°30'0 0.3
2016-Jun-28 03:01N 72°18' E 015°31'1 0.5
2016-Jun-28 02:01N 72°17' E 015°31'1 0.5
2016-Jun-28 01:01N 72°17' E 015°32'0 0.4
2016-Jun-28 00:01N 72°17' E 015°33'0 0.4
2016-Jun-27 23:01N 72°16' E 015°34'0 0.3
2016-Jun-27 22:01N 72°16' E 015°35'0 0.2
2016-Jun-27 21:01N 72°16' E 015°35'0 0.2
2016-Jun-27 20:01N 72°16' E 015°35'0 0.2
2016-Jun-27 19:01N 72°15' E 015°35'0 0.4
2016-Jun-27 18:01N 72°15' E 015°34'0 0.4
2016-Jun-27 17:01N 72°15' E 015°34'0 0.4
2016-Jun-27 16:01N 72°14' E 015°35'0 0.4
2016-Jun-27 15:01N 72°14' E 015°36'0 0.4
2016-Jun-27 14:01N 72°14' E 015°37'0 0.4
2016-Jun-27 13:01N 72°14' E 015°38'0 0.4
2016-Jun-27 12:01N 72°14' E 015°40'1 0.6
2016-Jun-27 11:01N 72°14' E 015°42'1 0.6
2016-Jun-27 10:01N 72°14' E 015°43'1 0.7
2016-Jun-27 09:01N 72°13' E 015°46'1 0.7
2016-Jun-27 08:01N 72°14' E 015°48'1 0.8
2016-Jun-27 07:01N 72°14' E 015°50'1 0.7
2016-Jun-27 06:01N 72°14' E 015°52'0 0.5
2016-Jun-27 05:01N 72°14' E 015°53'0 0.4
2016-Jun-27 04:01N 72°15' E 015°54'0 0.4
2016-Jun-27 03:01N 72°15' E 015°56'0 0.5
2016-Jun-27 02:01N 72°15' E 015°57'0 0.4
2016-Jun-27 01:01N 72°15' E 015°58'0 0.3
2016-Jun-27 00:01N 72°16' E 015°59'0 0.2
2016-Jun-26 23:01N 72°16' E 015°59'0 0.3
2016-Jun-26 22:01N 72°16' E 016°00'0 0.3
2016-Jun-26 21:01N 72°16' E 016°01'0 0.1
2016-Jun-26 20:01N 72°16' E 016°01'1 0.3
2016-Jun-26 18:01N 72°16' E 015°59'1 0.5
2016-Jun-26 17:01N 72°15' E 015°58'1 0.5
2016-Jun-26 16:01N 72°15' E 015°58'1 0.4
2016-Jun-26 14:01N 72°14' E 015°58'0 0.2
2016-Jun-26 13:01N 72°14' E 015°58'0 0.3
2016-Jun-26 12:01N 72°14' E 015°59'1 0.5
2016-Jun-26 10:01N 72°15' E 015°59'1 0.7
2016-Jun-26 09:01N 72°16' E 015°59'1 0.7
2016-Jun-26 08:01N 72°17' E 015°57'1 0.6
2016-Jun-26 07:01N 72°17' E 015°55'1 0.5
2016-Jun-26 06:01N 72°17' E 015°53'1 0.5
2016-Jun-26 05:01N 72°17' E 015°52'1 0.5
2016-Jun-26 04:01N 72°17' E 015°50'1 0.5
2016-Jun-26 03:01N 72°18' E 015°49'1 0.4
2016-Jun-26 01:01N 72°18' E 015°48'1 0.7
2016-Jun-26 00:01N 72°19' E 015°47'1 0.7
2016-Jun-25 23:01N 72°20' E 015°46'1 0.8
2016-Jun-25 22:01N 72°20' E 015°44'1 1.0
2016-Jun-25 21:01N 72°21' E 015°42'1 1.0
2016-Jun-25 20:01N 72°21' E 015°38'1 1.1
2016-Jun-25 19:01N 72°22' E 015°35'1 1.2
2016-Jun-25 18:01N 72°22' E 015°31'1 1.2
2016-Jun-25 17:01N 72°22' E 015°27'1 0.9
2016-Jun-25 16:01N 72°22' E 015°24'1 0.6
2016-Jun-25 15:01N 72°22' E 015°22'1 0.4
2016-Jun-25 13:01N 72°22' E 015°19'0 0.3
2016-Jun-25 12:01N 72°22' E 015°18'0 0.3
2016-Jun-25 11:01N 72°22' E 015°18'1 0.6
2016-Jun-25 10:01N 72°23' E 015°16'1 0.5
2016-Jun-25 09:01N 72°23' E 015°15'0 0.5
2016-Jun-25 08:01N 72°23' E 015°14'1 0.5
2016-Jun-25 07:01N 72°23' E 015°12'1 0.5
2016-Jun-25 06:01N 72°23' E 015°10'0 0.5
2016-Jun-25 05:01N 72°23' E 015°09'0 0.5
2016-Jun-25 04:01N 72°23' E 015°08'0 0.4
2016-Jun-25 03:01N 72°23' E 015°06'0 0.3
2016-Jun-25 02:01N 72°23' E 015°06'0 0.1
2016-Jun-25 01:01N 72°22' E 015°06'0 0.2
2016-Jun-25 00:01N 72°22' E 015°05'0 0.3
2016-Jun-24 23:01N 72°23' E 015°04'1 0.5
2016-Jun-24 22:01N 72°22' E 015°02'1 0.6
2016-Jun-24 21:01N 72°22' E 015°01'0 0.4
2016-Jun-24 20:01N 72°21' E 015°00'1 0.5
2016-Jun-24 19:01N 72°21' E 014°59'1 0.5
2016-Jun-24 18:01N 72°21' E 014°59'1 0.6
2016-Jun-24 17:01N 72°20' E 014°58'1 0.7
2016-Jun-24 16:01N 72°19' E 014°58'1 0.5
2016-Jun-24 15:01N 72°19' E 014°58'0 0.4
2016-Jun-24 14:01N 72°18' E 014°58'0 0.4
2016-Jun-24 13:01N 72°18' E 014°59'1 0.3
2016-Jun-24 11:01N 72°18' E 015°01'1 0.3
2016-Jun-24 09:01N 72°18' E 015°02'0 0.2
2016-Jun-24 08:01N 72°19' E 015°02'0 0.2
2016-Jun-24 07:01N 72°19' E 015°01'1 0.4
2016-Jun-24 05:01N 72°18' E 014°59'1 0.8
2016-Jun-24 04:01N 72°17' E 014°58'1 0.9
2016-Jun-24 03:01N 72°17' E 014°57'1 0.7
2016-Jun-24 02:01N 72°16' E 014°56'1 0.8
2016-Jun-24 01:01N 72°15' E 014°56'1 0.8
2016-Jun-24 00:01N 72°14' E 014°56'1 0.7
2016-Jun-23 23:01N 72°14' E 014°57'1 0.8
2016-Jun-23 22:01N 72°13' E 014°58'1 0.6
2016-Jun-23 20:01N 72°12' E 014°60'1 0.5
2016-Jun-23 18:01N 72°11' E 015°01'0 0.5
2016-Jun-23 17:01N 72°10' E 015°01'0 0.5
2016-Jun-23 16:01N 72°10' E 015°01'1 0.6
2016-Jun-23 15:01N 72°09' E 015°01'1 0.6
2016-Jun-23 14:01N 72°08' E 015°01'1 0.6
2016-Jun-23 12:01N 72°07' E 015°01'0 0.5
2016-Jun-23 11:01N 72°07' E 015°01'0 0.3
2016-Jun-23 10:01N 72°07' E 015°01'1 0.4
2016-Jun-23 08:01N 72°06' E 014°59'1 0.5
2016-Jun-23 06:01N 72°05' E 014°57'1 0.6
2016-Jun-23 05:01N 72°05' E 014°56'1 0.6
2016-Jun-23 04:01N 72°04' E 014°55'1 0.7
2016-Jun-23 03:01N 72°03' E 014°54'1 0.7
2016-Jun-23 01:01N 72°02' E 014°51'1 0.7
2016-Jun-23 00:01N 72°02' E 014°49'1 0.9
2016-Jun-22 23:01N 72°02' E 014°47'1 1.1
2016-Jun-22 22:01N 72°01' E 014°43'3 1.4
2016-Jun-22 20:01N 71°60' E 014°35'2 1.5
2016-Jun-22 19:01N 71°59' E 014°31'1 1.4
2016-Jun-22 18:01N 71°58' E 014°27'1 1.2
2016-Jun-22 17:01N 71°58' E 014°23'1 1.5
2016-Jun-22 16:01N 71°58' E 014°19'1 1.5
2016-Jun-22 15:01N 71°57' E 014°14'2 1.0
2016-Jun-22 13:01N 71°57' E 014°08'0 0.3
2016-Jun-22 12:01N 71°57' E 014°07'1 0.5
2016-Jun-22 11:01N 71°57' E 014°06'1 0.6
2016-Jun-22 10:01N 71°58' E 014°05'1 0.7
2016-Jun-22 09:01N 71°58' E 014°04'1 0.7
2016-Jun-22 08:01N 71°59' E 014°02'0 0.4
2016-Jun-22 07:01N 71°59' E 014°02'0 0.4
2016-Jun-22 06:01N 71°60' E 014°02'0 0.4
2016-Jun-22 05:01N 71°60' E 014°01'0 0.1
2016-Jun-22 03:01N 72°00' E 014°02'0 0.2
2016-Jun-22 02:01N 72°00' E 014°03'0 0.3
2016-Jun-22 01:01N 72°00' E 014°03'0 0.3
2016-Jun-22 00:01N 72°01' E 014°04'0 0.3
2016-Jun-21 23:01N 72°01' E 014°05'1 0.5
2016-Jun-21 22:01N 72°01' E 014°06'1 0.6
2016-Jun-21 20:01N 72°02' E 014°10'1 0.8
2016-Jun-21 19:01N 72°02' E 014°12'1 0.7
2016-Jun-21 18:01N 72°02' E 014°14'1 0.8
2016-Jun-21 17:01N 72°02' E 014°17'1 0.8
2016-Jun-21 16:01N 72°01' E 014°19'1 0.7
2016-Jun-21 15:01N 72°01' E 014°20'1 0.7
2016-Jun-21 14:01N 72°00' E 014°21'1 0.8
2016-Jun-21 13:01N 71°60' E 014°22'1 1.0
2016-Jun-21 12:01N 71°59' E 014°23'  

Dump ship's entire track history